createdAt,value
2018-02-04T00:01:41.346Z,53.20
2018-02-04T00:04:07.528Z,46.90
2018-02-04T00:06:33.679Z,46.67
2018-02-04T00:08:59.762Z,38.90
2018-02-04T00:11:25.962Z,41.17
2018-02-04T00:13:52.107Z,44.00
2018-02-04T00:16:18.251Z,42.23
2018-02-04T00:18:44.369Z,54.33
2018-02-04T00:21:10.642Z,44.43
2018-02-04T00:23:36.829Z,43.07
2018-02-04T00:26:02.993Z,50.83
2018-02-04T00:28:29.089Z,53.30
2018-02-04T00:30:55.322Z,83.83
2018-02-04T00:33:21.548Z,66.93
2018-02-04T00:35:47.665Z,80.03
2018-02-04T00:38:13.790Z,89.73
2018-02-04T00:40:39.983Z,59.77
2018-02-04T00:43:06.180Z,57.73
2018-02-04T00:45:32.274Z,48.03
2018-02-04T00:47:58.386Z,44.97
2018-02-04T00:50:24.511Z,38.43
2018-02-04T00:52:50.749Z,34.30
2018-02-04T00:55:16.929Z,29.37
2018-02-04T00:57:43.053Z,24.07
2018-02-04T01:00:09.316Z,21.30
2018-02-04T01:02:35.484Z,25.03
2018-02-04T01:05:01.648Z,19.80
2018-02-04T01:07:27.750Z,24.10
2018-02-04T01:09:53.915Z,24.63
2018-02-04T01:12:20.021Z,19.77
2018-02-04T01:14:46.198Z,18.87
2018-02-04T01:17:12.358Z,22.43
2018-02-04T01:19:38.452Z,18.93
2018-02-04T01:22:04.548Z,18.70
2018-02-04T01:24:30.727Z,19.60
2018-02-04T01:26:56.844Z,25.80
2018-02-04T01:29:22.969Z,19.97
2018-02-04T01:31:49.102Z,25.43
2018-02-04T01:34:15.281Z,18.23
2018-02-04T01:36:41.376Z,17.37
2018-02-04T01:39:07.477Z,18.57
2018-02-04T01:41:33.618Z,19.93
2018-02-04T01:43:59.788Z,19.53
2018-02-04T01:46:25.893Z,19.20
2018-02-04T01:48:52.074Z,18.47
2018-02-04T01:51:18.170Z,18.97
2018-02-04T01:53:44.323Z,20.83
2018-02-04T01:56:10.459Z,17.53
2018-02-04T01:58:36.661Z,19.03
2018-02-04T02:01:02.795Z,17.80
2018-02-04T02:03:28.954Z,27.53
2018-02-04T02:05:55.063Z,17.10
2018-02-04T02:08:21.164Z,16.10
2018-02-04T02:10:47.312Z,17.20
2018-02-04T02:13:13.487Z,21.07
2018-02-04T02:15:39.608Z,18.17
2018-02-04T02:18:05.704Z,22.30
2018-02-04T02:20:31.858Z,17.83
2018-02-04T02:22:58.010Z,21.33
2018-02-04T02:25:24.097Z,23.50
2018-02-04T02:27:50.238Z,18.33
2018-02-04T02:30:16.454Z,21.03
2018-02-04T02:32:42.555Z,24.63
2018-02-04T02:35:08.767Z,20.67
2018-02-04T02:37:34.925Z,22.37
2018-02-04T02:40:01.035Z,27.80
2018-02-04T02:42:27.185Z,22.33
2018-02-04T02:44:53.344Z,23.73
2018-02-04T02:47:19.451Z,24.40
2018-02-04T02:49:45.594Z,22.23
2018-02-04T02:52:11.766Z,25.70
2018-02-04T02:54:37.922Z,22.03
2018-02-04T02:57:04.018Z,23.43
2018-02-04T02:59:30.206Z,26.73
2018-02-04T03:01:56.323Z,20.90
2018-02-04T03:04:22.485Z,27.80
2018-02-04T03:06:48.579Z,24.50
2018-02-04T03:09:14.723Z,19.07
2018-02-04T03:11:40.821Z,22.77
2018-02-04T03:14:07.011Z,16.73
2018-02-04T03:16:33.159Z,20.67
2018-02-04T03:18:59.267Z,22.00
2018-02-04T03:21:25.418Z,22.43
2018-02-04T03:23:51.558Z,22.20
2018-02-04T03:26:17.659Z,21.13
2018-02-04T03:28:43.802Z,20.73
2018-02-04T03:31:09.905Z,26.37
2018-02-04T03:33:36.065Z,18.23
2018-02-04T03:36:02.250Z,24.97
2018-02-04T03:38:28.335Z,21.17
2018-02-04T03:40:54.443Z,20.23
2018-02-04T03:43:20.640Z,19.27
2018-02-04T03:45:46.741Z,15.57
2018-02-04T03:48:12.849Z,21.67
2018-02-04T03:50:38.997Z,21.27
2018-02-04T03:53:05.115Z,23.20
2018-02-04T03:55:31.271Z,18.13
2018-02-04T03:57:57.442Z,13.77
2018-02-04T04:00:23.540Z,16.77
2018-02-04T04:02:49.710Z,12.40
2018-02-04T04:05:15.888Z,14.00
2018-02-04T04:07:41.993Z,11.13
2018-02-04T04:10:08.080Z,14.20
2018-02-04T04:12:34.224Z,11.03
2018-02-04T04:15:00.400Z,11.17
2018-02-04T04:17:26.495Z,13.33
2018-02-04T04:19:52.717Z,13.53
2018-02-04T04:22:18.887Z,18.37
2018-02-04T04:24:45.926Z,20.90
2018-02-04T04:27:12.145Z,16.07
2018-02-04T04:29:38.373Z,15.07
2018-02-04T04:32:04.575Z,12.23
2018-02-04T04:34:30.780Z,13.37
2018-02-04T04:36:56.995Z,16.97
2018-02-04T04:39:23.162Z,16.47
2018-02-04T04:41:49.402Z,17.07
2018-02-04T04:44:15.626Z,17.93
2018-02-04T04:46:41.818Z,14.03
2018-02-04T04:49:07.986Z,12.70
2018-02-04T04:51:34.144Z,11.80
2018-02-04T04:54:00.355Z,17.23
2018-02-04T04:56:26.532Z,13.37
2018-02-04T04:58:52.749Z,10.37
2018-02-04T05:01:18.929Z,15.63
2018-02-04T05:03:45.253Z,9.30
2018-02-04T05:06:11.394Z,12.33
2018-02-04T05:08:37.548Z,10.30
2018-02-04T05:11:03.728Z,8.37
2018-02-04T05:13:29.936Z,14.57
2018-02-04T05:15:56.056Z,11.77
2018-02-04T05:18:22.224Z,15.60
2018-02-04T05:20:48.382Z,10.80
2018-02-04T05:23:14.548Z,9.77
2018-02-04T05:25:40.770Z,14.87
2018-02-04T05:28:07.000Z,12.73
2018-02-04T05:30:33.170Z,12.30
2018-02-04T05:32:59.446Z,8.83
2018-02-04T05:35:25.657Z,10.60
2018-02-04T05:37:51.867Z,13.47
2018-02-04T05:40:18.032Z,9.60
2018-02-04T05:42:44.239Z,9.53
2018-02-04T05:45:10.473Z,11.33
2018-02-04T05:47:36.653Z,11.30
2018-02-04T05:50:02.816Z,10.40
2018-02-04T05:52:28.990Z,18.63
2018-02-04T05:54:55.251Z,11.90
2018-02-04T05:57:21.511Z,13.97
2018-02-04T05:59:47.716Z,13.03
2018-02-04T06:02:13.950Z,12.53
2018-02-04T06:04:40.120Z,13.17
2018-02-04T06:07:06.287Z,7.30
2018-02-04T06:09:32.507Z,9.67
2018-02-04T06:11:58.704Z,10.33
2018-02-04T06:14:24.953Z,17.70
2018-02-04T06:16:51.228Z,18.60
2018-02-04T06:19:17.397Z,15.97
2018-02-04T06:21:43.582Z,16.07
2018-02-04T06:24:09.832Z,14.07
2018-02-04T06:26:36.100Z,13.23
2018-02-04T06:29:02.406Z,14.63
2018-02-04T06:31:28.672Z,13.33
2018-02-04T06:33:54.966Z,11.17
2018-02-04T06:36:21.210Z,20.60
2018-02-04T06:38:47.544Z,17.80
2018-02-04T06:41:13.700Z,13.40
2018-02-04T06:43:39.855Z,9.73
2018-02-04T06:46:06.085Z,11.57
2018-02-04T06:48:32.245Z,13.80
2018-02-04T06:50:58.475Z,14.20
2018-02-04T06:53:24.692Z,13.30
2018-02-04T06:55:50.921Z,10.47
2018-02-04T06:58:17.124Z,12.00
2018-02-04T07:00:43.359Z,12.60
2018-02-04T07:03:09.541Z,12.03
2018-02-04T07:05:35.735Z,13.33
2018-02-04T07:08:01.880Z,10.53
2018-02-04T07:10:28.105Z,13.33
2018-02-04T07:12:54.338Z,10.63
2018-02-04T07:15:20.539Z,14.27
2018-02-04T07:17:46.914Z,13.17
2018-02-04T07:20:13.154Z,8.53
2018-02-04T07:22:39.316Z,12.10
2018-02-04T07:25:05.545Z,9.80
2018-02-04T07:27:31.744Z,27.00
2018-02-04T07:29:58.080Z,12.07
2018-02-04T07:32:24.318Z,16.73
2018-02-04T07:34:50.515Z,12.20
2018-02-04T07:37:16.677Z,14.53
2018-02-04T07:39:42.913Z,15.47
2018-02-04T07:42:09.140Z,9.53
2018-02-04T07:44:35.340Z,12.33
2018-02-04T07:47:01.562Z,11.63
2018-02-04T07:49:27.812Z,15.77
2018-02-04T07:51:54.019Z,12.00
2018-02-04T07:54:20.279Z,23.13
2018-02-04T07:56:46.442Z,17.93
2018-02-04T07:59:12.641Z,12.73
2018-02-04T08:01:38.805Z,11.77
2018-02-04T08:04:04.947Z,11.17
2018-02-04T08:06:31.153Z,15.53
2018-02-04T08:08:57.327Z,13.17
2018-02-04T08:11:23.646Z,15.63
2018-02-04T08:13:49.841Z,16.70
2018-02-04T08:16:16.087Z,10.40
2018-02-04T08:18:42.314Z,10.60
2018-02-04T08:21:08.534Z,15.20
2018-02-04T08:23:34.793Z,11.03
2018-02-04T08:26:01.026Z,13.27
2018-02-04T08:28:27.262Z,11.13
2018-02-04T08:30:53.521Z,12.93
2018-02-04T08:33:19.687Z,12.63
2018-02-04T08:35:46.052Z,10.83
2018-02-04T08:38:12.294Z,13.13
2018-02-04T08:40:38.590Z,14.77
2018-02-04T08:43:04.765Z,13.63
2018-02-04T08:45:30.969Z,12.03
2018-02-04T08:47:57.162Z,15.00
2018-02-04T08:50:23.370Z,13.00
2018-02-04T08:52:49.561Z,15.03
2018-02-04T08:55:15.812Z,8.83
2018-02-04T08:57:42.023Z,10.87
2018-02-04T09:00:08.202Z,10.00
2018-02-04T09:02:34.411Z,14.90
2018-02-04T09:05:00.718Z,9.93
2018-02-04T09:07:26.898Z,11.30
2018-02-04T09:09:53.080Z,11.57
2018-02-04T09:12:19.703Z,16.33
2018-02-04T09:14:45.958Z,15.70
2018-02-04T09:17:12.152Z,17.10
2018-02-04T09:19:38.384Z,29.03
2018-02-04T09:22:04.768Z,11.20
2018-02-04T09:24:30.908Z,13.17
2018-02-04T09:26:57.170Z,11.10
2018-02-04T09:29:24.321Z,9.17
2018-02-04T09:31:50.509Z,17.77
2018-02-04T09:34:16.672Z,9.07
2018-02-04T09:36:42.899Z,9.07
2018-02-04T09:39:09.071Z,9.20
2018-02-04T09:41:35.223Z,9.27
2018-02-04T09:44:01.418Z,11.77
2018-02-04T09:46:27.619Z,17.33
2018-02-04T09:48:53.777Z,10.03
2018-02-04T09:51:19.995Z,10.20
2018-02-04T09:53:46.254Z,16.87
2018-02-04T09:56:12.431Z,8.73
2018-02-04T09:58:38.698Z,8.63
2018-02-04T10:01:04.886Z,12.03
2018-02-04T10:03:31.044Z,12.23
2018-02-04T10:05:57.268Z,11.23
2018-02-04T10:08:23.476Z,11.73
2018-02-04T10:10:49.635Z,9.97
2018-02-04T10:13:15.819Z,10.43
2018-02-04T10:15:42.011Z,7.17
2018-02-04T10:18:08.228Z,12.30
2018-02-04T10:20:34.485Z,14.50
2018-02-04T10:23:00.713Z,12.73
2018-02-04T10:25:26.958Z,11.43
2018-02-04T10:27:53.414Z,15.43
2018-02-04T10:30:19.646Z,53.13
2018-02-04T10:32:45.861Z,11.20
2018-02-04T10:35:12.110Z,16.17
2018-02-04T10:37:38.483Z,15.70
2018-02-04T10:40:04.642Z,51.20
2018-02-04T10:42:30.828Z,15.73
2018-02-04T10:44:57.091Z,10.97
2018-02-04T10:47:23.277Z,17.27
2018-02-04T10:49:50.071Z,39.27
2018-02-04T10:52:16.346Z,15.07
2018-02-04T10:54:42.492Z,13.07
2018-02-04T10:57:08.783Z,14.17
2018-02-04T10:59:35.040Z,7.47
2018-02-04T11:02:01.191Z,10.93
2018-02-04T11:04:27.387Z,8.70
2018-02-04T11:06:53.911Z,26.53
2018-02-04T11:09:20.067Z,18.70
2018-02-04T11:11:46.229Z,12.17
2018-02-04T11:14:12.404Z,9.50
2018-02-04T11:16:38.584Z,9.87
2018-02-04T11:19:04.786Z,10.20
2018-02-04T11:21:30.958Z,13.70
2018-02-04T11:23:57.455Z,9.17
2018-02-04T11:26:23.712Z,15.57
2018-02-04T11:28:49.888Z,15.23
2018-02-04T11:31:18.671Z,8.73
2018-02-04T11:33:44.824Z,9.83
2018-02-04T11:36:11.109Z,14.80
2018-02-04T11:38:37.220Z,14.17
2018-02-04T11:41:03.597Z,15.87
2018-02-04T11:43:29.729Z,19.33
2018-02-04T11:45:55.928Z,11.60
2018-02-04T11:48:22.078Z,12.90
2018-02-04T11:50:48.218Z,9.23
2018-02-04T11:53:14.471Z,18.30
2018-02-04T11:55:40.734Z,13.87
2018-02-04T11:58:06.958Z,9.97
2018-02-04T12:00:33.179Z,20.30
2018-02-04T12:02:59.389Z,13.60
2018-02-04T12:05:25.615Z,22.13
2018-02-04T12:07:51.792Z,12.43
2018-02-04T12:10:18.091Z,12.57
2018-02-04T12:12:44.342Z,11.83
2018-02-04T12:15:10.548Z,12.03
2018-02-04T12:17:36.828Z,20.67
2018-02-04T12:20:03.161Z,15.60
2018-02-04T12:22:29.358Z,17.37
2018-02-04T12:24:55.604Z,14.90
2018-02-04T12:27:21.869Z,12.50
2018-02-04T12:29:50.818Z,38.93
2018-02-04T12:32:16.993Z,17.17
2018-02-04T12:34:43.207Z,16.83
2018-02-04T12:37:09.489Z,17.67
2018-02-04T12:39:36.777Z,10.63
2018-02-04T12:42:02.918Z,9.10
2018-02-04T12:44:29.273Z,12.63
2018-02-04T12:46:55.481Z,14.50
2018-02-04T12:49:21.668Z,21.47
2018-02-04T12:51:47.884Z,14.50
2018-02-04T12:54:14.971Z,26.03
2018-02-04T12:56:41.214Z,13.27
2018-02-04T12:59:07.501Z,15.87
2018-02-04T13:01:33.984Z,26.30
2018-02-04T13:04:00.099Z,13.90
2018-02-04T13:06:26.354Z,35.27
2018-02-04T13:08:52.533Z,24.17
2018-02-04T13:11:18.733Z,16.33
2018-02-04T13:13:45.043Z,16.80
2018-02-04T13:16:11.226Z,11.67
2018-02-04T13:18:37.418Z,12.23
2018-02-04T13:21:03.578Z,13.80
2018-02-04T13:23:29.746Z,16.10
2018-02-04T13:25:55.916Z,31.03
2018-02-04T13:28:22.128Z,35.70
2018-02-04T13:30:48.470Z,15.23
2018-02-04T13:33:14.708Z,19.60
2018-02-04T13:35:40.873Z,11.73
2018-02-04T13:38:07.076Z,18.73
2018-02-04T13:40:33.297Z,12.90
2018-02-04T13:42:59.466Z,10.40
2018-02-04T13:45:25.671Z,10.03
2018-02-04T13:47:51.941Z,9.50
2018-02-04T13:50:18.081Z,22.27
2018-02-04T13:52:44.237Z,34.93
2018-02-04T13:55:10.407Z,16.93
2018-02-04T13:57:36.630Z,14.37
2018-02-04T14:00:02.949Z,8.00
2018-02-04T14:02:29.082Z,17.93
2018-02-04T14:04:55.272Z,12.93
2018-02-04T14:07:21.469Z,16.53
2018-02-04T14:09:47.729Z,13.70
2018-02-04T14:12:13.952Z,11.83
2018-02-04T14:14:40.122Z,24.50
2018-02-04T14:17:06.408Z,16.93
2018-02-04T14:19:32.633Z,13.37
2018-02-04T14:21:58.837Z,12.93
2018-02-04T14:24:25.048Z,13.23
2018-02-04T14:26:51.287Z,15.27
2018-02-04T14:29:17.536Z,14.23
2018-02-04T14:31:43.695Z,12.63
2018-02-04T14:34:10.120Z,14.17
2018-02-04T14:36:36.426Z,14.40
2018-02-04T14:39:02.591Z,23.87
2018-02-04T14:41:35.854Z,18.47
2018-02-04T14:44:01.996Z,13.97
2018-02-04T14:46:28.278Z,14.93
2018-02-04T14:48:59.474Z,17.00
2018-02-04T14:51:27.236Z,27.80
2018-02-04T14:53:53.687Z,10.67
2018-02-04T14:56:20.078Z,10.17
2018-02-04T14:58:46.359Z,14.73
2018-02-04T15:01:12.695Z,12.53
2018-02-04T15:03:38.889Z,17.87
2018-02-04T15:06:05.055Z,13.70
2018-02-04T15:08:31.271Z,15.93
2018-02-04T15:10:57.597Z,16.13
2018-02-04T15:13:23.781Z,22.90
2018-02-04T15:15:49.929Z,14.17
2018-02-04T15:18:16.167Z,37.90
2018-02-04T15:20:42.322Z,21.97
2018-02-04T15:23:08.604Z,12.63
2018-02-04T15:25:34.849Z,21.20
2018-02-04T15:28:01.205Z,35.17
2018-02-04T15:30:28.136Z,17.60
2018-02-04T15:32:55.313Z,21.87
2018-02-04T15:35:22.058Z,30.17
2018-02-04T15:37:48.336Z,17.30
2018-02-04T15:40:14.513Z,23.00
2018-02-04T15:42:40.812Z,26.30
2018-02-04T15:45:08.006Z,8.83
2018-02-04T15:47:34.177Z,14.20
2018-02-04T15:50:01.092Z,13.50
2018-02-04T15:52:27.288Z,19.90
2018-02-04T15:54:59.941Z,15.93
2018-02-04T15:57:36.934Z,24.37
2018-02-04T16:00:04.566Z,10.50
2018-02-04T16:02:30.807Z,25.43
2018-02-04T16:04:56.985Z,16.40
2018-02-04T16:07:23.180Z,15.17
2018-02-04T16:09:51.004Z,32.47
2018-02-04T16:12:18.565Z,21.87
2018-02-04T16:14:44.734Z,33.07
2018-02-04T16:17:11.264Z,21.00
2018-02-04T16:19:37.658Z,24.83
2018-02-04T16:22:04.790Z,27.87
2018-02-04T16:24:31.753Z,29.67
2018-02-04T16:26:57.926Z,25.63
2018-02-04T16:29:24.123Z,13.37
2018-02-04T16:31:50.490Z,24.87
2018-02-04T16:34:16.728Z,22.67
2018-02-04T16:36:43.009Z,15.07
2018-02-04T16:39:09.161Z,18.30
2018-02-04T16:41:35.340Z,17.13
2018-02-04T16:44:01.561Z,16.33
2018-02-04T16:46:27.683Z,31.10
2018-02-04T16:48:53.871Z,28.43
2018-02-04T16:51:20.057Z,18.90
2018-02-04T16:53:46.279Z,18.70
2018-02-04T16:56:12.511Z,9.87
2018-02-04T16:58:38.709Z,16.23
2018-02-04T17:01:04.916Z,13.67
2018-02-04T17:03:31.111Z,12.80
2018-02-04T17:05:57.315Z,14.77
2018-02-04T17:08:23.608Z,15.37
2018-02-04T17:10:49.852Z,20.57
2018-02-04T17:13:16.044Z,19.53
2018-02-04T17:15:42.213Z,13.47
2018-02-04T17:18:08.386Z,13.37
2018-02-04T17:20:34.585Z,17.20
2018-02-04T17:23:00.839Z,29.17
2018-02-04T17:25:27.031Z,12.00
2018-02-04T17:27:53.232Z,14.27
2018-02-04T17:30:19.565Z,14.67
2018-02-04T17:32:45.752Z,13.57
2018-02-04T17:35:11.884Z,13.77
2018-02-04T17:37:38.107Z,17.23
2018-02-04T19:05:41.678Z,74.57
2018-02-04T19:23:28.857Z,71.67
2018-02-04T19:56:28.845Z,71.43
2018-02-04T19:58:59.068Z,70.13
2018-02-04T20:07:30.581Z,38.13
2018-02-04T20:09:56.770Z,13.93
2018-02-04T20:12:22.962Z,18.47
2018-02-04T20:14:49.135Z,18.37
2018-02-04T20:17:15.259Z,16.13
2018-02-04T20:19:41.376Z,16.63
2018-02-04T20:22:07.560Z,20.80
2018-02-04T20:24:33.822Z,19.40
2018-02-04T20:26:59.968Z,12.27
2018-02-04T20:29:26.133Z,16.57
2018-02-04T20:31:52.310Z,15.73
2018-02-04T20:34:30.510Z,17.13
2018-02-04T20:36:56.678Z,16.90
2018-02-04T20:39:22.826Z,17.10
2018-02-04T20:41:48.977Z,16.53
2018-02-04T20:44:15.161Z,19.70
2018-02-04T20:46:41.358Z,23.20
2018-02-04T20:49:07.491Z,25.13
2018-02-04T20:51:33.686Z,22.87
2018-02-04T20:53:59.884Z,19.37
2018-02-04T20:56:26.047Z,19.83
2018-02-04T20:58:52.290Z,14.23
2018-02-04T21:01:18.399Z,19.60
2018-02-04T21:03:44.567Z,19.70
2018-02-04T21:06:10.723Z,20.83
2018-02-04T21:08:37.199Z,16.20
2018-02-04T21:11:03.313Z,15.53
2018-02-04T21:13:29.540Z,32.87
2018-02-04T21:15:55.694Z,20.07
2018-02-04T21:18:21.808Z,18.17
2018-02-04T21:20:47.916Z,19.13
2018-02-04T21:23:14.255Z,14.80
2018-02-04T21:25:40.463Z,15.90
2018-02-04T21:28:06.635Z,17.83
2018-02-04T21:30:32.849Z,16.47
2018-02-04T21:32:58.951Z,22.20
2018-02-04T21:35:25.101Z,20.27
2018-02-04T21:37:51.265Z,22.30
2018-02-04T21:40:17.356Z,18.83
2018-02-04T21:42:43.531Z,17.63
2018-02-04T21:45:09.758Z,20.90
2018-02-04T21:47:35.925Z,16.33
2018-02-04T21:50:02.087Z,26.23
2018-02-04T21:52:28.254Z,20.67
2018-02-04T21:54:54.416Z,26.57
2018-02-04T21:57:20.625Z,21.00
2018-02-04T21:59:46.880Z,17.80
2018-02-04T22:02:13.030Z,18.90
2018-02-04T22:04:39.185Z,15.10
2018-02-04T22:07:05.312Z,16.93
2018-02-04T22:09:31.418Z,20.73
2018-02-04T22:11:57.578Z,16.40
2018-02-04T22:14:23.785Z,18.37
2018-02-04T22:16:49.887Z,17.40
2018-02-04T22:19:15.972Z,17.87
2018-02-04T22:21:42.127Z,15.77
2018-02-04T22:24:08.224Z,17.67
2018-02-04T22:26:34.386Z,27.77
2018-02-04T22:29:00.607Z,18.30
2018-02-04T22:31:26.767Z,23.80
2018-02-04T22:33:52.862Z,17.37
2018-02-04T22:36:19.034Z,19.97
2018-02-04T22:38:45.164Z,19.20
2018-02-04T22:41:11.308Z,20.43
2018-02-04T22:43:37.443Z,19.70
2018-02-04T22:46:03.603Z,18.60
2018-02-04T22:48:29.737Z,20.40
2018-02-04T22:50:55.860Z,24.30
2018-02-04T22:53:22.026Z,19.70
2018-02-04T22:55:48.188Z,17.93
2018-02-04T22:58:14.350Z,18.73
2018-02-04T23:00:40.482Z,19.03
2018-02-04T23:03:06.724Z,30.93
2018-02-04T23:05:32.892Z,18.40
2018-02-04T23:07:58.988Z,19.47
2018-02-04T23:10:25.092Z,20.20
2018-02-04T23:12:51.255Z,21.53
2018-02-04T23:15:17.398Z,24.27
2018-02-04T23:17:43.559Z,25.63
2018-02-04T23:20:09.723Z,25.47
2018-02-04T23:22:35.852Z,20.70
2018-02-04T23:25:02.032Z,19.43
2018-02-04T23:27:28.301Z,17.27
2018-02-04T23:29:54.406Z,18.93
2018-02-04T23:32:20.582Z,23.80
2018-02-04T23:34:46.776Z,18.37
2018-02-04T23:37:12.898Z,23.17
2018-02-04T23:39:38.994Z,26.23
2018-02-04T23:42:05.132Z,25.10
2018-02-04T23:44:31.244Z,21.37
2018-02-04T23:46:57.377Z,24.23
2018-02-04T23:49:23.495Z,22.17
2018-02-04T23:51:49.613Z,27.53
2018-02-04T23:54:15.709Z,19.80
2018-02-04T23:56:41.853Z,19.57
2018-02-04T23:59:08.076Z,25.97
